CEST,Max TemperatureF,Mean TemperatureF,Min TemperatureF,Max Dew PointF,MeanDew PointF,Min DewpointF,Max Humidity, Mean Humidity, Min Humidity, Max Sea Level PressureIn, Mean Sea Level PressureIn, Min Sea Level PressureIn, Max VisibilityMiles, Mean VisibilityMiles, Min VisibilityMiles, Max Wind SpeedMPH, Mean Wind SpeedMPH, Max Gust SpeedMPH,PrecipitationIn, CloudCover, Events, WindDirDegrees
2012-9-1,75,70,64,55,53,51,68,50,36,30.01,29.96,29.92,12,7,6,14,10,,0.00,3,,216
2012-9-2,79,72,64,67,59,48,88,69,33,30.07,30.02,29.98,12,6,3,14,8,,0.04,5,Rain-Thunderstorm,46
2012-9-3,77,70,64,67,61,59,88,73,46,29.98,29.93,29.89,9,6,0,16,10,,0.08,3,Rain-Thunderstorm,127
2012-9-4,73,68,64,68,63,59,94,84,67,29.89,29.85,29.83,6,5,2,22,11,34,1.50,3,Rain-Thunderstorm,88
2012-9-5,79,72,66,68,66,63,94,80,60,29.90,29.87,29.83,11,6,5,16,13,,0.03,5,Rain-Thunderstorm,110
2012-9-6,81,72,64,70,65,59,94,74,47,30.04,29.96,29.89,12,7,6,20,10,,0.00,3,Rain-Thunderstorm,330
2012-9-7,82,74,67,70,66,59,94,71,45,30.15,30.09,30.06,12,8,6,12,6,,0.00,1,,301
2012-9-8,82,74,65,68,63,54,94,71,32,30.12,30.07,30.04,16,11,6,13,6,,0.00,,,335
2012-9-9,80,73,66,72,67,63,94,81,62,30.08,30.05,30.04,9,6,1,10,4,,0.00,1,,39
2012-9-10,79,71,63,70,67,64,94,80,58,30.09,30.06,30.04,12,6,5,12,5,,0.00,1,,331
2012-9-11,79,72,65,70,65,61,94,77,48,30.08,30.04,29.98,16,7,2,16,6,,0.00,1,,330
2012-9-12,81,72,64,72,67,63,89,80,58,30.01,29.90,29.77,9,5,1,16,5,,0.00,3,,147
2012-9-13,75,68,62,72,60,54,89,68,43,29.71,29.58,29.50,9,6,5,17,13,,0.00,4,Rain-Thunderstorm,284
2012-9-14,64,60,57,57,55,51,94,79,61,29.65,29.55,29.50,7,6,4,20,15,,0.28,5,Rain,12
2012-9-15,81,70,60,68,57,46,88,66,20,29.86,29.76,29.65,9,7,6,17,12,,0.00,2,,11
2012-9-16,77,70,62,64,59,55,94,69,46,29.93,29.90,29.86,16,8,6,13,8,,0.00,2,,53
2012-9-17,74,66,58,61,55,50,94,66,37,29.99,29.95,29.92,12,9,6,13,7,,0.00,1,,345
2012-9-18,75,67,59,64,59,55,94,72,50,29.99,29.97,29.95,16,9,6,10,4,,0.00,1,,313
2012-9-19,75,68,60,68,62,54,94,79,56,29.95,29.90,29.86,12,6,2,14,7,,0.39,4,Rain-Thunderstorm,96
2012-9-20,81,72,60,65,53,32,94,61,18,30.10,29.98,29.89,9,6,0,13,6,,0.00,2,Fog-Rain-Thunderstorm,11
2012-9-21,74,64,53,63,58,52,88,70,47,30.17,30.12,30.01,16,9,6,13,8,,0.00,1,,120
2012-9-22,77,70,64,66,64,59,100,76,60,30.12,30.06,30.04,16,8,6,15,10,,0.00,3,,115
2012-9-23,79,73,67,69,63,57,83,69,47,30.06,30.02,29.95,16,8,6,14,10,,0.00,3,,123
2012-9-24,79,74,69,72,66,48,88,75,29,29.95,29.86,29.77,16,7,5,25,14,37,0.00,3,,130
2012-9-25,78,72,67,66,63,59,88,71,48,29.94,29.90,29.86,12,7,6,17,10,,0.00,4,Rain,142
2012-9-26,78,74,71,70,65,57,88,71,49,29.97,29.92,29.89,9,6,5,20,12,,0.00,4,Rain,118
2012-9-27,82,76,69,73,70,66,88,80,69,30.01,29.97,29.92,7,6,6,20,10,,0.00,3,,136
2012-9-28,86,76,65,66,59,50,83,56,28,30.04,30.00,29.98,12,7,6,14,6,,0.00,2,,123
2012-9-29,88,79,70,72,54,40,89,44,15,29.99,29.95,29.92,16,8,6,25,12,30,0.00,1,,134
2012-9-30,77,71,65,70,66,61,88,85,73,30.06,30.00,29.95,9,5,3,14,8,,0.39,4,Rain-Thunderstorm,85